createdAt,value
2022-10-29T00:01:23.700Z,73.00
2022-10-29T00:03:50.198Z,73.00
2022-10-29T00:06:16.700Z,73.00
2022-10-29T00:08:43.187Z,73.00
2022-10-29T00:11:12.249Z,73.00
2022-10-29T00:13:38.719Z,73.80
2022-10-29T00:16:06.257Z,73.00
2022-10-29T00:18:32.727Z,73.00
2022-10-29T00:20:59.204Z,72.90
2022-10-29T00:23:25.682Z,73.00
2022-10-29T00:25:54.253Z,73.00
2022-10-29T00:28:20.722Z,73.00
2022-10-29T00:30:47.199Z,72.90
2022-10-29T00:33:13.696Z,73.00
2022-10-29T00:35:40.214Z,72.90
2022-10-29T00:38:12.267Z,73.00
2022-10-29T00:40:42.284Z,72.90
2022-10-29T00:43:08.769Z,73.00
2022-10-29T00:45:35.256Z,72.90
2022-10-29T00:48:01.717Z,72.90
2022-10-29T00:50:28.215Z,72.80
2022-10-29T00:52:54.695Z,72.90
2022-10-29T00:55:21.176Z,72.80
2022-10-29T00:57:47.659Z,72.80
2022-10-29T01:00:14.137Z,72.90
2022-10-29T01:02:40.746Z,72.80
2022-10-29T01:05:07.298Z,72.90
2022-10-29T01:07:33.761Z,72.70
2022-10-29T01:10:00.244Z,72.90
2022-10-29T01:12:26.714Z,72.80
2022-10-29T01:14:54.296Z,72.80
2022-10-29T01:17:20.774Z,72.70
2022-10-29T01:19:47.242Z,72.70
2022-10-29T01:22:13.717Z,72.70
2022-10-29T01:24:42.259Z,72.70
2022-10-29T01:29:59.013Z,72.70
2022-10-29T01:32:25.492Z,72.60
2022-10-29T01:34:51.971Z,72.70
2022-10-29T01:37:18.449Z,72.60
2022-10-29T01:39:44.928Z,72.70
2022-10-29T01:42:11.422Z,72.70
2022-10-29T01:44:37.894Z,72.60
2022-10-29T01:47:04.349Z,72.70
2022-10-29T01:49:30.834Z,72.60
2022-10-29T01:51:57.336Z,72.60
2022-10-29T01:54:23.803Z,72.60
2022-10-29T01:56:50.271Z,72.60
2022-10-29T01:59:28.754Z,72.50
2022-10-29T02:02:06.370Z,72.50
2022-10-29T02:04:32.851Z,72.50
2022-10-29T02:06:59.335Z,72.50
2022-10-29T02:09:25.808Z,72.50
2022-10-29T02:11:52.297Z,72.40
2022-10-29T02:14:18.787Z,72.50
2022-10-29T02:16:45.260Z,72.50
2022-10-29T02:19:11.729Z,72.40
2022-10-29T02:21:38.204Z,72.40
2022-10-29T02:24:04.668Z,72.50
2022-10-29T02:26:36.360Z,72.50
2022-10-29T02:29:02.821Z,73.20
2022-10-29T02:31:29.319Z,72.30
2022-10-29T02:33:55.780Z,72.20
2022-10-29T02:36:22.263Z,72.20
2022-10-29T02:38:48.743Z,72.30
2022-10-29T02:41:15.223Z,72.20
2022-10-29T02:43:41.693Z,72.30
2022-10-29T02:46:08.199Z,72.10
2022-10-29T02:48:34.671Z,72.10
2022-10-29T02:51:01.152Z,72.10
2022-10-29T02:53:27.607Z,72.00
2022-10-29T02:55:54.095Z,72.20
2022-10-29T03:00:47.970Z,72.00
2022-10-29T03:03:14.443Z,71.90
2022-10-29T03:05:43.000Z,71.80
2022-10-29T03:08:11.690Z,72.00
2022-10-29T03:10:38.153Z,72.00
2022-10-29T03:13:04.642Z,72.00
2022-10-29T03:15:31.113Z,71.80
2022-10-29T03:17:57.860Z,71.80
2022-10-29T03:20:24.517Z,71.70
2022-10-29T03:22:51.001Z,71.70
2022-10-29T03:25:17.479Z,71.70
2022-10-29T03:27:43.951Z,71.70
2022-10-29T03:30:10.412Z,71.70
2022-10-29T03:32:36.877Z,71.60
2022-10-29T03:35:03.342Z,71.70
2022-10-29T03:37:29.852Z,71.70
2022-10-29T03:39:56.345Z,71.60
2022-10-29T03:42:22.870Z,71.70
2022-10-29T03:44:54.622Z,71.60
2022-10-29T03:47:21.124Z,71.60
2022-10-29T03:49:47.597Z,71.60
2022-10-29T03:52:14.095Z,71.60
2022-10-29T03:54:42.387Z,71.50
2022-10-29T03:57:08.864Z,71.60
2022-10-29T03:59:35.340Z,71.60
2022-10-29T04:02:01.941Z,71.50
2022-10-29T04:04:28.461Z,71.60
2022-10-29T04:06:54.912Z,71.60
2022-10-29T04:09:21.383Z,71.50
2022-10-29T04:11:47.852Z,71.50
2022-10-29T04:14:14.748Z,71.60
2022-10-29T04:16:41.211Z,71.50
2022-10-29T04:19:07.676Z,71.40
2022-10-29T04:29:53.501Z,71.30
2022-10-29T04:32:24.478Z,71.20
2022-10-29T04:34:50.949Z,71.20
2022-10-29T04:37:17.436Z,71.10
2022-10-29T04:39:43.894Z,71.20
2022-10-29T04:42:10.381Z,71.20
2022-10-29T04:44:36.843Z,71.20
2022-10-29T04:47:03.325Z,71.30
2022-10-29T04:49:29.824Z,71.30
2022-10-29T04:51:56.293Z,71.10
2022-10-29T04:54:22.765Z,71.30
2022-10-29T04:56:49.226Z,71.20
2022-10-29T04:59:15.690Z,71.20
2022-10-29T05:01:42.149Z,71.20
2022-10-29T05:04:08.625Z,71.10
2022-10-29T05:06:35.098Z,71.00
2022-10-29T05:09:01.603Z,70.80
2022-10-29T05:11:28.076Z,70.90
2022-10-29T05:13:54.568Z,70.90
2022-10-29T05:16:21.055Z,70.90
2022-10-29T05:18:47.528Z,71.00
2022-10-29T05:21:13.990Z,70.90
2022-10-29T05:23:40.474Z,70.90
2022-10-29T05:26:06.934Z,71.00
2022-10-29T05:28:33.409Z,70.90
2022-10-29T05:30:59.902Z,71.00
2022-10-29T05:33:26.390Z,70.90
2022-10-29T05:35:52.860Z,70.90
2022-10-29T05:38:19.345Z,71.00
2022-10-29T05:40:45.831Z,71.00
2022-10-29T05:43:12.338Z,71.00
2022-10-29T05:45:38.831Z,71.00
2022-10-29T05:48:05.413Z,71.00
2022-10-29T05:50:31.932Z,71.00
2022-10-29T05:52:58.653Z,71.00
2022-10-29T05:55:25.456Z,70.80
2022-10-29T05:57:51.968Z,71.00
2022-10-29T06:00:18.444Z,70.90
2022-10-29T06:02:45.073Z,71.00
2022-10-29T06:05:11.685Z,71.00
2022-10-29T06:07:38.143Z,71.00
2022-10-29T06:10:04.625Z,71.00
2022-10-29T06:12:34.682Z,71.00
2022-10-29T06:15:01.484Z,71.00
2022-10-29T06:17:27.951Z,70.90
2022-10-29T06:19:54.419Z,70.90
2022-10-29T06:22:20.899Z,70.90
2022-10-29T06:24:47.397Z,70.90
2022-10-29T06:27:13.878Z,70.90
2022-10-29T06:29:42.553Z,70.90
2022-10-29T06:32:09.036Z,70.90
2022-10-29T06:34:35.519Z,70.90
2022-10-29T06:37:02.000Z,70.90
2022-10-29T06:39:28.480Z,70.80
2022-10-29T06:42:00.684Z,70.90
2022-10-29T06:44:27.149Z,70.80
2022-10-29T06:46:53.623Z,70.90
2022-10-29T06:49:20.111Z,70.90
2022-10-29T06:51:46.594Z,70.90
2022-10-29T06:54:13.083Z,70.90
2022-10-29T06:56:39.561Z,70.90
2022-10-29T06:59:06.042Z,70.90
2022-10-29T07:01:32.561Z,70.90
2022-10-29T07:03:59.111Z,70.90
2022-10-29T07:06:25.597Z,70.90
2022-10-29T07:08:52.109Z,70.80
2022-10-29T07:11:18.585Z,70.90
2022-10-29T07:13:45.069Z,70.90
2022-10-29T07:16:11.546Z,70.90
2022-10-29T07:18:38.024Z,70.90
2022-10-29T07:21:04.495Z,70.90
2022-10-29T07:26:02.347Z,71.00
2022-10-29T07:28:28.831Z,70.90
2022-10-29T07:30:55.287Z,70.90
2022-10-29T07:33:21.761Z,70.90
2022-10-29T07:35:48.233Z,70.90
2022-10-29T07:38:14.710Z,71.00
2022-10-29T07:40:41.201Z,71.00
2022-10-29T07:43:07.704Z,70.90
2022-10-29T07:45:34.197Z,70.90
2022-10-29T07:48:02.858Z,70.90
2022-10-29T07:50:29.756Z,70.90
2022-10-29T07:52:56.446Z,70.90
2022-10-29T07:55:23.120Z,71.00
2022-10-29T07:57:49.621Z,71.00
2022-10-29T08:00:16.106Z,71.00
2022-10-29T08:02:42.583Z,71.00
2022-10-29T08:05:09.050Z,71.00
2022-10-29T08:07:35.516Z,71.00
2022-10-29T08:10:01.990Z,71.00
2022-10-29T08:12:28.453Z,70.90
2022-10-29T08:14:54.967Z,70.90
2022-10-29T08:17:21.425Z,70.90
2022-10-29T08:19:47.892Z,70.90
2022-10-29T08:22:14.364Z,70.90
2022-10-29T08:24:40.850Z,70.90
2022-10-29T08:27:12.794Z,70.80
2022-10-29T08:29:39.278Z,70.90
2022-10-29T08:32:05.772Z,70.90
2022-10-29T08:34:36.645Z,70.90
2022-10-29T08:37:03.160Z,70.90
2022-10-29T08:39:29.630Z,71.70
2022-10-29T08:41:56.113Z,70.90
2022-10-29T08:44:22.606Z,70.90
2022-10-29T08:46:49.083Z,70.90
2022-10-29T08:49:15.556Z,70.90
2022-10-29T08:51:42.041Z,70.90
2022-10-29T08:54:29.814Z,70.90
2022-10-29T08:56:54.987Z,70.90
2022-10-29T08:59:21.467Z,71.00
2022-10-29T09:01:48.036Z,71.00
2022-10-29T09:04:14.659Z,70.90
2022-10-29T09:06:41.146Z,70.90
2022-10-29T09:09:07.612Z,70.90
2022-10-29T09:11:34.085Z,70.90
2022-10-29T09:14:00.577Z,71.00
2022-10-29T09:16:27.123Z,71.00
2022-10-29T09:18:53.679Z,71.10
2022-10-29T09:21:20.162Z,71.00
2022-10-29T09:23:46.648Z,71.10
2022-10-29T09:26:13.128Z,71.00
2022-10-29T09:28:39.609Z,71.20
2022-10-29T09:31:06.085Z,71.20
2022-10-29T09:33:32.581Z,71.20
2022-10-29T09:35:59.061Z,71.20
2022-10-29T09:41:15.467Z,71.30
2022-10-29T09:43:41.940Z,71.30
2022-10-29T09:46:08.398Z,71.20
2022-10-29T09:48:34.865Z,71.20
2022-10-29T09:51:01.317Z,71.30
2022-10-29T09:53:27.820Z,71.20
2022-10-29T09:55:57.397Z,71.20
2022-10-29T09:58:23.896Z,71.30
2022-10-29T10:00:50.376Z,71.40
2022-10-29T10:03:16.935Z,71.30
2022-10-29T10:05:43.518Z,71.40
2022-10-29T10:08:10.032Z,71.30
2022-10-29T10:10:36.509Z,71.30
2022-10-29T10:13:02.995Z,71.30
2022-10-29T10:15:29.474Z,71.30
2022-10-29T10:17:56.341Z,71.30
2022-10-29T10:20:23.103Z,71.40
2022-10-29T10:22:49.603Z,71.30
2022-10-29T10:25:16.118Z,71.40
2022-10-29T10:27:42.635Z,71.40
2022-10-29T10:30:09.115Z,71.30
2022-10-29T10:32:35.586Z,71.40
2022-10-29T10:35:02.057Z,71.40
2022-10-29T10:37:28.524Z,71.40
2022-10-29T10:40:00.757Z,71.60
2022-10-29T10:42:27.375Z,71.40
2022-10-29T10:44:53.869Z,71.40
2022-10-29T10:47:20.352Z,71.40
2022-10-29T10:49:46.817Z,71.20
2022-10-29T10:52:13.289Z,71.40
2022-10-29T10:54:39.824Z,71.40
2022-10-29T10:57:06.412Z,71.40
2022-10-29T10:59:32.890Z,71.40
2022-10-29T11:01:59.504Z,71.50
2022-10-29T11:04:30.793Z,71.50
2022-10-29T11:06:57.294Z,71.50
2022-10-29T11:09:23.767Z,71.50
2022-10-29T11:11:58.800Z,71.50
2022-10-29T11:14:25.758Z,71.50
2022-10-29T11:16:52.255Z,71.50
2022-10-29T11:19:18.730Z,71.60
2022-10-29T11:21:45.229Z,71.70
2022-10-29T11:24:11.687Z,71.80
2022-10-29T11:26:38.150Z,71.80
2022-10-29T11:29:04.612Z,71.80
2022-10-29T11:31:31.079Z,71.80
2022-10-29T11:33:57.547Z,71.90
2022-10-29T11:36:24.028Z,71.90
2022-10-29T11:38:50.504Z,71.90
2022-10-29T11:41:16.978Z,71.90
2022-10-29T11:43:43.460Z,71.90
2022-10-29T11:46:09.937Z,71.90
2022-10-29T11:48:36.455Z,71.90
2022-10-29T11:51:02.924Z,72.00
2022-10-29T11:53:29.404Z,72.10
2022-10-29T11:55:55.881Z,72.00
2022-10-29T11:58:24.815Z,72.00
2022-10-29T12:00:51.275Z,72.20
2022-10-29T12:03:17.879Z,72.10
2022-10-29T12:05:44.407Z,72.20
2022-10-29T12:08:10.891Z,72.30
2022-10-29T12:10:37.349Z,72.50
2022-10-29T12:13:03.832Z,72.40
2022-10-29T12:15:30.784Z,72.70
2022-10-29T12:17:57.464Z,72.50
2022-10-29T12:20:26.807Z,72.40
2022-10-29T12:22:56.712Z,72.50
2022-10-29T12:25:27.083Z,72.50
2022-10-29T12:27:54.849Z,72.60
2022-10-29T12:30:21.309Z,72.40
2022-10-29T12:32:48.845Z,72.50
2022-10-29T12:35:15.301Z,72.50
2022-10-29T12:37:42.862Z,72.30
2022-10-29T12:40:09.350Z,72.60
2022-10-29T12:42:35.894Z,72.70
2022-10-29T12:45:02.367Z,72.60
2022-10-29T12:47:28.880Z,72.50
2022-10-29T12:49:55.346Z,72.70
2022-10-29T12:52:21.845Z,72.40
2022-10-29T12:54:48.339Z,72.50
2022-10-29T12:57:14.834Z,72.70
2022-10-29T12:59:41.327Z,72.70
2022-10-29T13:02:12.413Z,72.60
2022-10-29T13:04:42.879Z,72.70
2022-10-29T13:07:09.365Z,72.50
2022-10-29T13:09:35.953Z,72.60
2022-10-29T13:12:02.487Z,72.60
2022-10-29T13:14:28.974Z,72.60
2022-10-29T13:16:55.444Z,72.70
2022-10-29T13:19:24.882Z,72.60
2022-10-29T13:21:51.350Z,72.60
2022-10-29T13:24:17.837Z,72.60
2022-10-29T13:26:44.311Z,73.40
2022-10-29T13:29:10.789Z,72.70
2022-10-29T13:31:37.263Z,72.70
2022-10-29T13:34:03.740Z,72.50
2022-10-29T13:36:30.848Z,72.60
2022-10-29T13:39:08.051Z,72.80
2022-10-29T13:41:34.595Z,72.60
2022-10-29T13:44:01.070Z,72.60
2022-10-29T13:46:27.524Z,72.70
2022-10-29T13:48:54.008Z,73.50
2022-10-29T13:51:20.500Z,72.70
2022-10-29T13:53:47.049Z,72.60
2022-10-29T13:56:13.524Z,72.60
2022-10-29T13:58:40.030Z,72.70
2022-10-29T14:01:06.582Z,72.60
2022-10-29T14:03:33.105Z,72.60
2022-10-29T14:05:59.572Z,72.60
2022-10-29T14:08:26.078Z,72.80
2022-10-29T14:10:52.568Z,72.80
2022-10-29T14:13:21.998Z,72.70
2022-10-29T14:15:51.134Z,72.70
2022-10-29T14:18:17.632Z,72.70
2022-10-29T14:20:49.062Z,72.70
2022-10-29T14:23:15.546Z,72.80
2022-10-29T14:25:42.046Z,72.90
2022-10-29T14:28:08.538Z,72.90
2022-10-29T14:30:34.994Z,72.80
2022-10-29T14:33:06.965Z,72.80
2022-10-29T14:35:37.029Z,72.80
2022-10-29T14:38:07.720Z,72.70
2022-10-29T14:40:36.948Z,72.70
2022-10-29T14:43:03.450Z,72.90
2022-10-29T14:45:29.929Z,72.70
2022-10-29T14:47:56.429Z,72.80
2022-10-29T14:50:22.880Z,72.80
2022-10-29T14:52:53.351Z,72.90
2022-10-29T14:55:20.337Z,73.00
2022-10-29T14:57:46.850Z,72.90
2022-10-29T15:00:13.330Z,72.90
2022-10-29T15:02:40.020Z,72.90
2022-10-29T15:05:07.736Z,73.00
2022-10-29T15:07:34.385Z,73.00
2022-10-29T15:10:00.855Z,73.00
2022-10-29T15:12:30.993Z,73.00
2022-10-29T15:14:57.469Z,73.10
2022-10-29T15:17:23.967Z,73.00
2022-10-29T15:19:50.452Z,73.00
2022-10-29T15:22:16.962Z,73.00
2022-10-29T15:24:43.440Z,73.00
2022-10-29T15:27:09.908Z,73.00
2022-10-29T15:29:42.019Z,73.00
2022-10-29T15:32:09.445Z,72.90
2022-10-29T15:34:35.953Z,73.10
2022-10-29T15:37:02.446Z,73.00
2022-10-29T15:39:28.920Z,72.90
2022-10-29T15:41:55.396Z,73.00
2022-10-29T15:44:21.881Z,72.90
2022-10-29T15:46:48.980Z,73.00
2022-10-29T15:49:15.464Z,73.00
2022-10-29T15:51:41.953Z,73.00
2022-10-29T15:54:08.421Z,73.00
2022-10-29T15:56:34.904Z,73.00
2022-10-29T15:59:01.369Z,73.00
2022-10-29T16:01:27.892Z,73.00
2022-10-29T16:03:55.030Z,73.00
2022-10-29T16:06:21.488Z,73.00
2022-10-29T16:08:47.973Z,73.10
2022-10-29T16:11:14.458Z,73.00
2022-10-29T16:13:40.939Z,73.00
2022-10-29T16:16:13.115Z,73.00
2022-10-29T16:18:39.593Z,73.10
2022-10-29T16:21:06.066Z,73.00
2022-10-29T16:23:32.540Z,73.10
2022-10-29T16:25:59.018Z,73.10
2022-10-29T16:28:31.034Z,73.00
2022-10-29T16:30:57.512Z,73.10
2022-10-29T16:33:23.988Z,73.10
2022-10-29T16:35:55.252Z,73.10
2022-10-29T16:38:21.721Z,73.00
2022-10-29T16:40:49.009Z,73.10
2022-10-29T16:43:15.489Z,73.10
2022-10-29T16:45:42.044Z,73.00
2022-10-29T16:48:08.583Z,73.10
2022-10-29T16:50:35.057Z,73.10
2022-10-29T16:53:01.544Z,73.10
2022-10-29T16:55:31.204Z,73.10
2022-10-29T16:57:58.042Z,73.00
2022-10-29T17:00:24.728Z,73.00
2022-10-29T17:02:51.217Z,73.00
2022-10-29T17:05:17.813Z,73.00
2022-10-29T17:07:44.283Z,73.00
2022-10-29T17:10:10.747Z,72.90
2022-10-29T17:12:37.206Z,73.00
2022-10-29T17:15:03.660Z,73.00
2022-10-29T17:17:30.136Z,73.00
2022-10-29T17:19:56.631Z,73.00
2022-10-29T17:22:23.116Z,74.00
2022-10-29T17:24:49.583Z,73.10
2022-10-29T17:27:16.088Z,73.00
2022-10-29T17:29:42.558Z,73.00
2022-10-29T17:32:13.257Z,73.00
2022-10-29T17:34:39.747Z,73.10
2022-10-29T17:37:06.239Z,73.10
2022-10-29T17:39:32.710Z,73.10
2022-10-29T17:41:59.174Z,73.00
2022-10-29T17:44:25.666Z,73.10
2022-10-29T17:46:52.131Z,73.00
2022-10-29T17:49:18.614Z,73.00
2022-10-29T17:51:46.446Z,72.90
2022-10-29T17:54:12.932Z,73.00
2022-10-29T17:56:43.310Z,72.90
2022-10-29T17:59:09.790Z,73.00
2022-10-29T18:01:36.339Z,73.00
2022-10-29T18:04:07.124Z,72.80
2022-10-29T18:06:33.592Z,72.90
2022-10-29T18:09:00.095Z,72.90
2022-10-29T18:11:26.580Z,72.90
2022-10-29T18:13:53.057Z,72.90
2022-10-29T18:16:19.531Z,72.90
2022-10-29T18:19:00.882Z,72.70
2022-10-29T18:21:31.091Z,72.80
2022-10-29T18:23:57.571Z,72.70
2022-10-29T18:26:24.007Z,72.80
2022-10-29T18:28:50.483Z,72.70
2022-10-29T18:31:16.941Z,72.70
2022-10-29T18:33:43.449Z,72.60
2022-10-29T18:36:09.911Z,72.60
2022-10-29T18:38:36.399Z,72.70
2022-10-29T18:41:02.874Z,72.70
2022-10-29T18:43:29.348Z,72.70
2022-10-29T18:46:01.355Z,72.70
2022-10-29T18:48:27.882Z,72.60
2022-10-29T18:50:54.435Z,72.60
2022-10-29T18:53:20.899Z,73.40
2022-10-29T18:55:47.377Z,72.60
2022-10-29T18:58:13.866Z,72.50
2022-10-29T19:00:40.330Z,72.60
2022-10-29T19:03:07.168Z,72.50
2022-10-29T19:05:37.187Z,72.40
2022-10-29T19:08:03.686Z,72.40
2022-10-29T19:10:30.142Z,72.40
2022-10-29T19:13:01.184Z,72.30
2022-10-29T19:15:27.670Z,72.30
2022-10-29T19:17:55.510Z,72.20
2022-10-29T19:20:25.136Z,72.20
2022-10-29T19:22:51.622Z,72.20
2022-10-29T19:25:18.091Z,72.20
2022-10-29T19:27:44.575Z,72.20
2022-10-29T19:30:11.042Z,72.10
2022-10-29T19:32:37.520Z,72.10
2022-10-29T19:35:03.993Z,72.00
2022-10-29T19:37:30.464Z,72.00
2022-10-29T19:39:56.926Z,72.00
2022-10-29T19:42:23.451Z,71.90
2022-10-29T19:44:53.648Z,71.80
2022-10-29T19:47:22.841Z,71.80
2022-10-29T19:49:49.297Z,71.70
2022-10-29T19:52:15.779Z,71.70
2022-10-29T19:54:42.262Z,71.60
2022-10-29T19:57:08.743Z,71.70
2022-10-29T19:59:35.235Z,71.60
2022-10-29T20:02:01.793Z,71.60
2022-10-29T20:04:28.370Z,71.60
2022-10-29T20:06:54.849Z,71.50
2022-10-29T20:09:21.316Z,71.50
2022-10-29T20:11:47.785Z,71.50
2022-10-29T20:14:14.253Z,71.40
2022-10-29T20:16:40.706Z,71.30
2022-10-29T20:19:07.175Z,71.30
2022-10-29T20:21:33.654Z,71.30
2022-10-29T20:24:00.136Z,71.20
2022-10-29T20:26:31.391Z,71.30
2022-10-29T20:28:58.455Z,71.20
2022-10-29T20:31:25.556Z,71.10
2022-10-29T20:33:54.428Z,71.10
2022-10-29T20:36:20.913Z,71.00
2022-10-29T20:38:47.435Z,71.00
2022-10-29T20:41:13.917Z,71.10
2022-10-29T20:43:40.412Z,71.00
2022-10-29T20:46:06.881Z,70.90
2022-10-29T20:48:33.358Z,70.80
2022-10-29T20:50:59.818Z,70.90
2022-10-29T20:53:26.301Z,70.90
2022-10-29T20:55:52.763Z,70.90
2022-10-29T20:58:19.243Z,70.70
2022-10-29T21:00:45.728Z,70.80
2022-10-29T21:03:12.208Z,70.70
2022-10-29T21:05:38.670Z,70.60
2022-10-29T21:08:07.277Z,70.60
2022-10-29T21:10:33.750Z,70.50
2022-10-29T21:13:01.294Z,70.50
2022-10-29T21:15:31.249Z,70.50
2022-10-29T21:17:57.726Z,70.40
2022-10-29T21:20:24.194Z,70.40
2022-10-29T21:22:50.695Z,70.30
2022-10-29T21:25:17.177Z,70.30
2022-10-29T21:27:43.663Z,70.20
2022-10-29T21:30:10.142Z,70.20
2022-10-29T21:32:36.646Z,70.00
2022-10-29T21:35:03.132Z,70.10
2022-10-29T21:37:29.622Z,70.10
2022-10-29T21:39:56.737Z,70.10
2022-10-29T21:42:25.475Z,70.10
2022-10-29T21:44:51.953Z,70.00
2022-10-29T21:47:18.470Z,70.00
2022-10-29T21:49:49.390Z,70.00
2022-10-29T21:52:18.126Z,70.00
2022-10-29T21:54:44.598Z,69.80
2022-10-29T21:57:11.091Z,69.80
2022-10-29T21:59:37.569Z,69.90
2022-10-29T22:02:04.113Z,69.90
2022-10-29T22:04:30.655Z,69.70
2022-10-29T22:06:57.139Z,69.60
2022-10-29T22:09:23.616Z,69.60
2022-10-29T22:11:50.092Z,69.60
2022-10-29T22:14:16.559Z,69.40
2022-10-29T22:16:43.033Z,69.70
2022-10-29T22:19:09.534Z,69.40
2022-10-29T22:21:36.029Z,69.40
2022-10-29T22:24:02.524Z,69.30
2022-10-29T22:26:29.023Z,69.40
2022-10-29T22:28:55.493Z,69.20
2022-10-29T22:31:21.973Z,69.20
2022-10-29T22:33:48.446Z,69.20
2022-10-29T22:36:14.925Z,69.00
2022-10-29T22:38:41.418Z,69.10
2022-10-29T22:41:07.915Z,69.00
2022-10-29T22:43:34.393Z,69.00
2022-10-29T22:46:00.862Z,69.20
2022-10-29T22:48:31.369Z,68.90
2022-10-29T22:50:57.843Z,68.80
2022-10-29T22:53:24.336Z,68.90
2022-10-29T22:55:50.823Z,68.70
2022-10-29T22:58:17.315Z,68.70
2022-10-29T23:00:43.829Z,68.60
2022-10-29T23:03:10.368Z,68.70
2022-10-29T23:05:36.838Z,69.60
2022-10-29T23:08:03.332Z,68.50
2022-10-29T23:10:29.815Z,68.60
2022-10-29T23:12:56.316Z,68.50
2022-10-29T23:15:25.383Z,68.50
2022-10-29T23:17:51.853Z,68.40
2022-10-29T23:20:19.393Z,68.20
2022-10-29T23:22:49.466Z,68.40
2022-10-29T23:25:15.930Z,68.10
2022-10-29T23:27:42.395Z,68.20
2022-10-29T23:30:08.878Z,68.20
2022-10-29T23:32:35.342Z,68.10
2022-10-29T23:37:52.591Z,68.10
2022-10-29T23:40:19.063Z,68.10
2022-10-29T23:42:45.539Z,67.90
2022-10-29T23:45:12.006Z,68.80
2022-10-29T23:47:38.477Z,67.80
2022-10-29T23:50:04.946Z,67.90
2022-10-29T23:52:31.427Z,67.90
2022-10-29T23:54:57.909Z,67.80
2022-10-29T23:57:24.395Z,67.80
2022-10-29T23:59:50.866Z,67.80
